Kliftrans — PCDB — position and weather

sailwx.info

Track history (hours):
 
Tides and Currents Weather Stations Pressure Air Temp Water Temp Dewpoint Dewpoint Depression Visibility Wind Speed Wind Dir Waves Ship Positions

Kliftrans

Last reported at 2016-Sep-28 21:33 UTC. Time now 2016-Sep-28 23:58 UTC.
Position N 51°28' E 003°43'.

Length 32 m; draft 6.2 m.

Type: Tug. MMSI: 244890607.

Date/timePositionNaut miles runAvg speedWind from/ knotsBaromVisibWave heightAir tempDewpointWater temp
2016-Sep-28 21:33N 51°28' E 003°43'0 0.2
2016-Sep-28 19:33N 51°28' E 003°42'0 0.0
2016-Sep-28 16:33N 51°28' E 003°42'0 0.0
2016-Sep-28 15:33N 51°28' E 003°42'0 0.0
2016-Sep-28 12:33N 51°28' E 003°42'1 0.3
2016-Sep-28 08:33N 51°28' E 003°41'0 0.0
2016-Sep-28 03:33N 51°28' E 003°41'0 0.0
2016-Sep-28 02:33N 51°28' E 003°41'0 0.0
2016-Sep-28 01:33N 51°28' E 003°41'0 0.0
2016-Sep-27 23:33N 51°28' E 003°41'0 0.0
2016-Sep-27 19:33N 51°28' E 003°41'0 0.0
2016-Sep-27 14:33N 51°28' E 003°41'2 1.5
2016-Sep-27 13:33N 51°29' E 003°42'2 0.5
2016-Sep-27 10:33N 51°28' E 003°41'9 0.9
2016-Sep-27 00:32N 51°21' E 003°49'3 0.8
2016-Sep-26 20:33N 51°17' E 003°50'8 8.1
2016-Sep-26 19:33N 51°09' E 003°47'10 2.5
2016-Sep-26 15:30N 51°20' E 003°49'3 1.5
2016-Sep-26 13:34N 51°21' E 003°45'3 1.3
2016-Sep-26 11:33N 51°20' E 003°49'0 0.0
2016-Sep-26 08:33N 51°20' E 003°49'6 1.0
2016-Sep-26 02:34N 51°25' E 003°43'3 2.9
2016-Sep-26 01:33N 51°27' E 003°40'0 0.5
2016-Sep-26 00:33N 51°28' E 003°41'0 0.0
2016-Sep-25 21:33N 51°28' E 003°41'2 0.4
2016-Sep-25 17:33N 51°28' E 003°43'3 2.5
2016-Sep-25 16:33N 51°27' E 003°40'6 6.3
2016-Sep-25 15:33N 51°25' E 003°30'5 5.4
2016-Sep-25 14:33N 51°24' E 003°22'10 5.1
2016-Sep-25 12:34N 51°22' E 003°06'6 5.9
2016-Sep-25 11:33N 51°22' E 002°56'6 6.4
2016-Sep-25 10:33N 51°22' E 002°46'2 1.9
2016-Sep-25 09:33N 51°22' E 002°49'2110.7
2016-Sep-25 07:33N 51°24' E 003°23'11 3.8
2016-Sep-25 04:33N 51°28' E 003°41'0 0.0
2016-Sep-25 00:33N 51°28' E 003°41'1 0.3
2016-Sep-24 22:33N 51°28' E 003°41'1 0.5
2016-Sep-24 21:33N 51°28' E 003°41'0 0.0
2016-Sep-24 19:33N 51°28' E 003°41'0 0.0
2016-Sep-24 18:33N 51°28' E 003°41'0 0.0
2016-Sep-24 17:33N 51°28' E 003°41'0 0.0
2016-Sep-24 16:33N 51°28' E 003°41'0 0.0
2016-Sep-24 14:33N 51°28' E 003°41'0 0.0
2016-Sep-24 12:33N 51°28' E 003°41'2 0.8
2016-Sep-24 10:33N 51°26' E 003°41'2 1.6
2016-Sep-24 09:34N 51°25' E 003°43'3 0.5
2016-Sep-24 03:33N 51°28' E 003°41'0 0.0
2016-Sep-24 02:33N 51°28' E 003°41'0 0.0
2016-Sep-24 01:33N 51°28' E 003°41'0 0.0
2016-Sep-24 00:33N 51°28' E 003°41'7 1.5
2016-Sep-23 19:33N 51°21' E 003°46'2 0.9
2016-Sep-23 17:33N 51°21' E 003°49'0 0.5
2016-Sep-23 16:33N 51°20' E 003°49'0 0.0
2016-Sep-23 15:33N 51°20' E 003°49'0 0.0
2016-Sep-23 13:34N 51°20' E 003°49'0 0.0
2016-Sep-23 09:33N 51°20' E 003°49'0 0.0
2016-Sep-23 06:33N 51°20' E 003°49'0 0.0
2016-Sep-23 04:33N 51°20' E 003°49'0 0.0
2016-Sep-23 03:33N 51°20' E 003°49'0 0.0
2016-Sep-23 02:33N 51°20' E 003°49'0 0.0
2016-Sep-23 01:33N 51°20' E 003°49'0 0.0
2016-Sep-23 00:33N 51°20' E 003°49'0 0.0
2016-Sep-22 23:33N 51°20' E 003°49'0 0.0
2016-Sep-22 20:33N 51°20' E 003°49'1 0.1
2016-Sep-22 12:33N 51°20' E 003°49'0 0.0
2016-Sep-22 04:33N 51°20' E 003°49'4 4.0
2016-Sep-22 03:34N 51°22' E 003°44'6 1.9
2016-Sep-22 00:33N 51°28' E 003°41'0 0.0
2016-Sep-21 23:34N 51°28' E 003°41'0 0.0
2016-Sep-21 22:34N 51°28' E 003°41'1 0.5
2016-Sep-21 19:33N 51°27' E 003°43'1 0.5
2016-Sep-21 16:33N 51°28' E 003°40'2 0.2
2016-Sep-21 09:34N 51°27' E 003°43'2 1.6
2016-Sep-21 08:34N 51°28' E 003°41'0 0.0
2016-Sep-21 05:34N 51°28' E 003°40'0 0.0
2016-Sep-21 03:34N 51°28' E 003°40'0 0.0
2016-Sep-21 02:33N 51°28' E 003°40'22 2.4
2016-Sep-20 17:34N 51°06' E 003°45'6 1.8
2016-Sep-20 14:33N 51°11' E 003°48'7 7.3
2016-Sep-20 13:33N 51°18' E 003°50'1 0.4
2016-Sep-20 10:33N 51°20' E 003°49'0 0.1
2016-Sep-20 08:33N 51°20' E 003°49'7 7.5
2016-Sep-20 07:33N 51°25' E 003°41'2 1.9
2016-Sep-20 06:34N 51°27' E 003°43'8 2.0
2016-Sep-20 02:33N 51°20' E 003°49'0 0.0
2016-Sep-19 23:33N 51°20' E 003°49'0 0.0
2016-Sep-19 19:33N 51°20' E 003°49'0 0.0
2016-Sep-19 18:33N 51°20' E 003°49'0 0.0
2016-Sep-19 16:33N 51°20' E 003°49'0 0.0
2016-Sep-19 14:33N 51°20' E 003°49'0 0.0
2016-Sep-19 13:33N 51°20' E 003°49'0 0.0
2016-Sep-19 12:33N 51°20' E 003°49'0 0.0
2016-Sep-19 11:33N 51°20' E 003°49'0 0.0
2016-Sep-19 09:33N 51°20' E 003°49'0 0.0
2016-Sep-19 07:33N 51°20' E 003°49'0 0.0
2016-Sep-19 06:33N 51°20' E 003°49'0 0.0
2016-Sep-19 03:33N 51°20' E 003°49'0 0.0
2016-Sep-19 02:33N 51°20' E 003°49'0 0.0
2016-Sep-19 00:33N 51°20' E 003°49'  
Track history (hours):
 
Tides and Currents Weather Stations Pressure Air Temp Water Temp Dewpoint Dewpoint Depression Visibility Wind Speed Wind Dir Waves Ship Positions

Kliftrans

Last reported at 2016-Sep-28 21:33 UTC. Time now 2016-Sep-28 23:58 UTC.
Position N 51°28' E 003°43'.

Length 32 m; draft 6.2 m.

Type: Tug. MMSI: 244890607.

Date/timePositionNaut miles runAvg speedWind from/ knotsBaromVisibWave heightAir tempDewpointWater temp
2016-Sep-28 21:33N 51°28' E 003°43'0 0.2
2016-Sep-28 19:33N 51°28' E 003°42'0 0.0
2016-Sep-28 16:33N 51°28' E 003°42'0 0.0
2016-Sep-28 15:33N 51°28' E 003°42'0 0.0
2016-Sep-28 12:33N 51°28' E 003°42'1 0.3
2016-Sep-28 08:33N 51°28' E 003°41'0 0.0
2016-Sep-28 03:33N 51°28' E 003°41'0 0.0
2016-Sep-28 02:33N 51°28' E 003°41'0 0.0
2016-Sep-28 01:33N 51°28' E 003°41'0 0.0
2016-Sep-27 23:33N 51°28' E 003°41'0 0.0
2016-Sep-27 19:33N 51°28' E 003°41'0 0.0
2016-Sep-27 14:33N 51°28' E 003°41'2 1.5
2016-Sep-27 13:33N 51°29' E 003°42'2 0.5
2016-Sep-27 10:33N 51°28' E 003°41'9 0.9
2016-Sep-27 00:32N 51°21' E 003°49'3 0.8
2016-Sep-26 20:33N 51°17' E 003°50'8 8.1
2016-Sep-26 19:33N 51°09' E 003°47'10 2.5
2016-Sep-26 15:30N 51°20' E 003°49'3 1.5
2016-Sep-26 13:34N 51°21' E 003°45'3 1.3
2016-Sep-26 11:33N 51°20' E 003°49'0 0.0
2016-Sep-26 08:33N 51°20' E 003°49'6 1.0
2016-Sep-26 02:34N 51°25' E 003°43'3 2.9
2016-Sep-26 01:33N 51°27' E 003°40'0 0.5
2016-Sep-26 00:33N 51°28' E 003°41'0 0.0
2016-Sep-25 21:33N 51°28' E 003°41'2 0.4
2016-Sep-25 17:33N 51°28' E 003°43'3 2.5
2016-Sep-25 16:33N 51°27' E 003°40'6 6.3
2016-Sep-25 15:33N 51°25' E 003°30'5 5.4
2016-Sep-25 14:33N 51°24' E 003°22'10 5.1
2016-Sep-25 12:34N 51°22' E 003°06'6 5.9
2016-Sep-25 11:33N 51°22' E 002°56'6 6.4
2016-Sep-25 10:33N 51°22' E 002°46'2 1.9
2016-Sep-25 09:33N 51°22' E 002°49'2110.7
2016-Sep-25 07:33N 51°24' E 003°23'11 3.8
2016-Sep-25 04:33N 51°28' E 003°41'0 0.0
2016-Sep-25 00:33N 51°28' E 003°41'1 0.3
2016-Sep-24 22:33N 51°28' E 003°41'1 0.5
2016-Sep-24 21:33N 51°28' E 003°41'0 0.0
2016-Sep-24 19:33N 51°28' E 003°41'0 0.0
2016-Sep-24 18:33N 51°28' E 003°41'0 0.0
2016-Sep-24 17:33N 51°28' E 003°41'0 0.0
2016-Sep-24 16:33N 51°28' E 003°41'0 0.0
2016-Sep-24 14:33N 51°28' E 003°41'0 0.0
2016-Sep-24 12:33N 51°28' E 003°41'2 0.8
2016-Sep-24 10:33N 51°26' E 003°41'2 1.6
2016-Sep-24 09:34N 51°25' E 003°43'3 0.5
2016-Sep-24 03:33N 51°28' E 003°41'0 0.0
2016-Sep-24 02:33N 51°28' E 003°41'0 0.0
2016-Sep-24 01:33N 51°28' E 003°41'0 0.0
2016-Sep-24 00:33N 51°28' E 003°41'7 1.5
2016-Sep-23 19:33N 51°21' E 003°46'2 0.9
2016-Sep-23 17:33N 51°21' E 003°49'0 0.5
2016-Sep-23 16:33N 51°20' E 003°49'0 0.0
2016-Sep-23 15:33N 51°20' E 003°49'0 0.0
2016-Sep-23 13:34N 51°20' E 003°49'0 0.0
2016-Sep-23 09:33N 51°20' E 003°49'0 0.0
2016-Sep-23 06:33N 51°20' E 003°49'0 0.0
2016-Sep-23 04:33N 51°20' E 003°49'0 0.0
2016-Sep-23 03:33N 51°20' E 003°49'0 0.0
2016-Sep-23 02:33N 51°20' E 003°49'0 0.0
2016-Sep-23 01:33N 51°20' E 003°49'0 0.0
2016-Sep-23 00:33N 51°20' E 003°49'0 0.0
2016-Sep-22 23:33N 51°20' E 003°49'0 0.0
2016-Sep-22 20:33N 51°20' E 003°49'1 0.1
2016-Sep-22 12:33N 51°20' E 003°49'0 0.0
2016-Sep-22 04:33N 51°20' E 003°49'4 4.0
2016-Sep-22 03:34N 51°22' E 003°44'6 1.9
2016-Sep-22 00:33N 51°28' E 003°41'0 0.0
2016-Sep-21 23:34N 51°28' E 003°41'0 0.0
2016-Sep-21 22:34N 51°28' E 003°41'1 0.5
2016-Sep-21 19:33N 51°27' E 003°43'1 0.5
2016-Sep-21 16:33N 51°28' E 003°40'2 0.2
2016-Sep-21 09:34N 51°27' E 003°43'2 1.6
2016-Sep-21 08:34N 51°28' E 003°41'0 0.0
2016-Sep-21 05:34N 51°28' E 003°40'0 0.0
2016-Sep-21 03:34N 51°28' E 003°40'0 0.0
2016-Sep-21 02:33N 51°28' E 003°40'22 2.4
2016-Sep-20 17:34N 51°06' E 003°45'6 1.8
2016-Sep-20 14:33N 51°11' E 003°48'7 7.3
2016-Sep-20 13:33N 51°18' E 003°50'1 0.4
2016-Sep-20 10:33N 51°20' E 003°49'0 0.1
2016-Sep-20 08:33N 51°20' E 003°49'7 7.5
2016-Sep-20 07:33N 51°25' E 003°41'2 1.9
2016-Sep-20 06:34N 51°27' E 003°43'8 2.0
2016-Sep-20 02:33N 51°20' E 003°49'0 0.0
2016-Sep-19 23:33N 51°20' E 003°49'0 0.0
2016-Sep-19 19:33N 51°20' E 003°49'0 0.0
2016-Sep-19 18:33N 51°20' E 003°49'0 0.0
2016-Sep-19 16:33N 51°20' E 003°49'0 0.0
2016-Sep-19 14:33N 51°20' E 003°49'0 0.0
2016-Sep-19 13:33N 51°20' E 003°49'0 0.0
2016-Sep-19 12:33N 51°20' E 003°49'0 0.0
2016-Sep-19 11:33N 51°20' E 003°49'0 0.0
2016-Sep-19 09:33N 51°20' E 003°49'0 0.0
2016-Sep-19 07:33N 51°20' E 003°49'0 0.0
2016-Sep-19 06:33N 51°20' E 003°49'0 0.0
2016-Sep-19 03:33N 51°20' E 003°49'0 0.0
2016-Sep-19 02:33N 51°20' E 003°49'0 0.0
2016-Sep-19 00:33N 51°20' E 003°49'  

Dump ship's entire track history